Time;durP1;ratioP1;P1;durP2;ratioP2;P2;SDS_P1;SDS_P2;PMS_P1;PMS_P2;Temp;Humidity;BMP_temperature;BMP_pressure;BME280_temperature;BME280_humidity;BME280_pressure;Samples;Min_cycle;Max_cycle;Signal;HPM_P1;HPM_P2
2022/04/17 00:01:49;;;;;;;5.10;3.17;;;;;;;20.84;36.95;102909.97;5012264;28;20029;-62
2022/04/17 00:04:15;;;;;;;5.68;3.40;;;;;;;20.82;36.79;102909.22;5011747;28;20413;-61
2022/04/17 00:06:41;;;;;;;4.70;2.88;;;;;;;20.80;36.80;102903.13;5012377;28;20034;-61
2022/04/17 00:09:07;;;;;;;5.15;3.10;;;;;;;20.78;36.81;102904.19;5014501;28;20088;-62
2022/04/17 00:11:35;;;;;;;5.22;3.10;;;;;;;20.75;36.78;102896.44;5016341;28;20022;-62
2022/04/17 00:14:00;;;;;;;5.75;3.10;;;;;;;20.72;36.71;102899.25;5015900;28;20022;-61
2022/04/17 00:16:25;;;;;;;5.03;3.22;;;;;;;20.69;36.84;102902.94;5015172;28;20100;-62
2022/04/17 00:18:51;;;;;;;5.15;2.67;;;;;;;20.67;36.64;102896.03;5015976;28;20100;-61
2022/04/17 00:21:16;;;;;;;4.73;3.00;;;;;;;20.64;36.76;102910.31;5016083;28;20053;-62
2022/04/17 00:23:44;;;;;;;4.38;2.75;;;;;;;20.63;36.60;102901.50;5015401;28;20017;-62
2022/04/17 00:26:09;;;;;;;5.75;3.03;;;;;;;20.61;36.60;102902.53;5015590;28;20037;-61
2022/04/17 00:28:35;;;;;;;6.10;3.20;;;;;;;20.59;36.36;102904.41;5015935;28;20026;-62
2022/04/17 00:31:00;;;;;;;5.40;3.25;;;;;;;20.56;36.37;102909.91;5014872;28;20026;-62
2022/04/17 00:33:26;;;;;;;4.90;2.90;;;;;;;20.55;36.64;102901.06;5015716;28;20496;-62
2022/04/17 00:35:51;;;;;;;5.55;3.10;;;;;;;20.55;36.60;102897.59;5015410;28;20032;-61
2022/04/17 00:38:16;;;;;;;5.37;3.10;;;;;;;20.53;36.32;102897.66;5015045;28;20032;-61
2022/04/17 00:40:41;;;;;;;5.15;2.97;;;;;;;20.51;36.36;102896.91;5015792;28;20190;-62
2022/04/17 00:43:26;;;;;;;5.20;2.90;;;;;;;20.49;36.39;102898.81;5015481;28;20080;-62
2022/04/17 00:45:52;;;;;;;4.57;2.88;;;;;;;20.48;36.40;102899.75;5014578;28;20462;-62
2022/04/17 00:48:18;;;;;;;5.22;2.92;;;;;;;20.45;36.20;102898.13;5015467;28;20026;-62
2022/04/17 00:50:45;;;;;;;5.25;3.03;;;;;;;20.44;35.99;102900.84;5015717;28;20022;-62
2022/04/17 00:53:11;;;;;;;4.60;2.83;;;;;;;20.43;36.17;102894.72;5014684;28;20065;-62
2022/04/17 00:55:36;;;;;;;6.22;3.08;;;;;;;20.43;36.03;102904.47;5015483;28;20056;-62
2022/04/17 00:58:02;;;;;;;5.13;2.70;;;;;;;20.41;36.23;102898.38;5015020;28;20034;-62
2022/04/17 01:00:27;;;;;;;4.72;3.03;;;;;;;20.40;36.16;102900.19;5014552;28;20033;-63
2022/04/17 01:02:53;;;;;;;5.18;2.97;;;;;;;20.40;36.02;102900.19;5014919;28;20026;-63
2022/04/17 01:05:20;;;;;;;5.83;2.80;;;;;;;20.38;36.11;102896.78;5014848;28;20378;-62
2022/04/17 01:07:46;;;;;;;5.28;2.90;;;;;;;20.36;36.24;102892.50;5015237;28;20291;-62
2022/04/17 01:10:11;;;;;;;5.45;3.00;;;;;;;20.36;36.00;102895.16;5015035;28;20551;-62
2022/04/17 01:12:37;;;;;;;4.68;2.88;;;;;;;20.34;36.17;102889.13;5014387;28;20025;-62
2022/04/17 01:15:03;;;;;;;5.97;3.03;;;;;;;20.29;35.85;102887.56;5014589;28;20034;-63
2022/04/17 01:17:28;;;;;;;5.65;2.80;;;;;;;20.28;35.84;102888.53;5014901;28;20025;-62
2022/04/17 01:19:53;;;;;;;5.05;2.70;;;;;;;20.27;36.04;102889.47;5013712;28;20471;-62
2022/04/17 01:22:19;;;;;;;4.57;2.55;;;;;;;20.25;36.13;102888.72;5014995;28;20367;-62
2022/04/17 01:27:30;;;;;;;5.55;3.33;;;;;;;20.23;35.70;102893.22;5014045;28;20117;-62
2022/04/17 01:29:56;;;;;;;5.18;3.13;;;;;;;20.24;35.83;102894.09;5014461;28;20037;-62
2022/04/17 01:32:22;;;;;;;4.65;2.70;;;;;;;20.22;35.76;102896.84;5014807;28;20018;-63
2022/04/17 01:34:48;;;;;;;4.70;2.72;;;;;;;20.20;35.70;102893.44;5014060;28;20026;-62
2022/04/17 01:37:14;;;;;;;5.00;2.78;;;;;;;20.19;35.73;102902.31;5014887;28;20030;-62
2022/04/17 01:39:39;;;;;;;4.97;2.85;;;;;;;20.19;35.67;102890.88;5016752;28;20029;-63
2022/04/17 01:42:05;;;;;;;4.50;2.88;;;;;;;20.18;35.55;102897.09;5014246;28;20018;-62
2022/04/17 01:44:30;;;;;;;4.70;2.75;;;;;;;20.16;35.50;102902.47;5014582;28;20022;-62
2022/04/17 01:46:57;;;;;;;4.53;2.70;;;;;;;20.16;35.56;102897.19;5014173;28;20109;-62
2022/04/17 01:49:23;;;;;;;4.70;2.67;;;;;;;20.16;35.60;102894.53;5013836;28;20030;-62
2022/04/17 01:51:51;;;;;;;4.90;2.60;;;;;;;20.14;35.36;102891.13;5014068;28;20029;-62
2022/04/17 01:54:18;;;;;;;4.07;2.38;;;;;;;20.13;35.61;102888.56;5014364;28;20030;-62
2022/04/17 01:56:44;;;;;;;4.75;2.50;;;;;;;20.10;35.38;102893.09;5013510;28;20057;-62
2022/04/17 01:59:10;;;;;;;5.15;2.80;;;;;;;20.10;35.30;102893.09;5013922;28;20044;-62
2022/04/17 02:01:37;;;;;;;5.00;2.80;;;;;;;20.09;35.30;102890.53;5013649;28;20536;-62
2022/04/17 02:04:04;;;;;;;4.65;2.55;;;;;;;20.09;35.31;102891.41;5013989;28;20030;-62
2022/04/17 02:06:30;;;;;;;5.10;2.90;;;;;;;20.09;35.32;102887.88;5013831;28;20460;-62
2022/04/17 02:08:56;;;;;;;5.35;2.95;;;;;;;20.07;35.53;102885.31;5012875;28;20132;-62
2022/04/17 02:11:23;;;;;;;4.57;2.60;;;;;;;20.06;35.23;102888.94;5014037;28;20022;-62
2022/04/17 02:13:49;;;;;;;4.40;2.60;;;;;;;20.04;35.29;102882.00;5013423;28;20362;-62
2022/04/17 02:16:15;;;;;;;5.47;2.67;;;;;;;20.05;35.25;102881.06;5013139;28;20052;-62
2022/04/17 02:18:40;;;;;;;4.97;2.58;;;;;;;20.02;35.34;102879.44;5013746;28;20028;-62
2022/04/17 02:21:06;;;;;;;5.85;2.90;;;;;;;20.02;35.45;102875.97;5013609;28;20026;-62
2022/04/17 02:23:31;;;;;;;4.93;2.58;;;;;;;20.01;35.30;102876.88;5013008;28;20458;-62
2022/04/17 02:26:00;;;;;;;4.78;2.78;;;;;;;19.98;35.23;102872.63;5013340;28;20026;-62
2022/04/17 02:28:27;;;;;;;4.50;2.22;;;;;;;19.97;35.08;102878.03;5013616;28;20100;-62
2022/04/17 02:30:52;;;;;;;5.10;2.70;;;;;;;19.96;35.10;102873.66;5012117;28;20034;-63
2022/04/17 02:33:17;;;;;;;4.35;2.40;;;;;;;19.93;35.28;102875.53;5013684;28;20087;-61
2022/04/17 02:35:43;;;;;;;4.30;2.10;;;;;;;19.92;34.96;102875.63;5013594;28;20053;-61
2022/04/17 02:38:08;;;;;;;5.03;2.60;;;;;;;19.90;35.20;102878.38;5012521;28;20275;-61
2022/04/17 02:40:39;;;;;;;4.20;2.38;;;;;;;19.89;35.39;102870.50;5013404;28;20307;-61
2022/04/17 02:43:07;;;;;;;5.45;2.45;;;;;;;19.89;35.24;102873.16;5013116;28;20033;-62
2022/04/17 02:45:33;;;;;;;5.32;2.45;;;;;;;19.88;35.09;102869.63;5012839;28;20108;-62
2022/04/17 02:48:04;;;;;;;5.57;2.83;;;;;;;19.87;35.08;102873.25;5013146;28;20152;-62
2022/04/17 02:50:33;;;;;;;4.90;2.95;;;;;;;19.86;35.02;102866.22;5013340;28;20271;-62
2022/04/17 02:53:01;;;;;;;4.60;2.60;;;;;;;19.86;34.91;102871.53;5012295;28;20014;-62
2022/04/17 02:55:26;;;;;;;4.13;2.50;;;;;;;19.85;34.76;102864.56;5013129;28;20359;-62
2022/04/17 02:57:52;;;;;;;5.43;2.50;;;;;;;19.84;35.17;102870.78;5012387;28;20044;-62
2022/04/17 03:00:18;;;;;;;5.25;2.42;;;;;;;19.84;34.90;102862.00;5013351;28;20025;-62
2022/04/17 03:05:36;;;;;;;4.63;2.40;;;;;;;19.82;34.88;102870.00;5012595;28;20393;-62
2022/04/17 03:08:05;;;;;;;4.45;2.33;;;;;;;19.82;34.90;102859.44;5012530;28;20030;-62
2022/04/17 03:10:31;;;;;;;4.15;2.30;;;;;;;19.80;34.86;102861.28;5013163;28;20052;-62
2022/04/17 03:12:57;;;;;;;4.90;2.40;;;;;;;19.80;35.04;102855.16;5012116;28;20439;-62
2022/04/17 03:15:23;;;;;;;3.97;2.45;;;;;;;19.78;35.02;102857.03;5012866;28;20084;-62
2022/04/17 03:17:48;;;;;;;4.35;2.40;;;;;;;19.78;34.79;102849.09;5012934;28;20421;-63
2022/04/17 03:20:14;;;;;;;4.55;2.58;;;;;;;19.77;34.69;102847.38;5012184;28;20050;-62
2022/04/17 03:22:43;;;;;;;5.72;2.58;;;;;;;19.77;34.91;102852.69;5012842;28;20072;-62
2022/04/17 03:25:11;;;;;;;4.70;2.50;;;;;;;19.74;35.07;102840.44;5012627;28;20485;-62
2022/04/17 03:27:43;;;;;;;4.78;2.53;;;;;;;19.73;34.80;102844.88;5012102;28;20070;-62
2022/04/17 03:30:09;;;;;;;4.97;2.40;;;;;;;19.71;34.85;102838.84;5012706;28;20030;-62
2022/04/17 03:32:35;;;;;;;3.95;2.08;;;;;;;19.70;35.15;102839.75;5012775;28;20088;-61
2022/04/17 03:35:00;;;;;;;5.05;2.40;;;;;;;19.70;34.68;102844.22;5011732;28;20022;-62
2022/04/17 03:37:25;;;;;;;4.63;2.33;;;;;;;19.69;34.66;102842.50;5012946;28;20037;-61
2022/04/17 03:39:52;;;;;;;4.40;2.38;;;;;;;19.68;34.95;102846.09;5012328;28;20060;-61
2022/04/17 03:42:18;;;;;;;3.92;2.03;;;;;;;19.67;34.84;102833.81;5014036;28;20041;-62
2022/04/17 03:44:43;;;;;;;4.38;2.30;;;;;;;19.65;34.70;102836.53;5016896;28;20026;-61
2022/04/17 03:47:09;;;;;;;4.03;2.47;;;;;;;19.65;34.68;102833.06;5015471;28;20037;-62
2022/04/17 03:49:34;;;;;;;4.07;2.20;;;;;;;19.64;34.71;102844.56;5016548;28;20482;-62
2022/04/17 03:52:03;;;;;;;4.55;2.60;;;;;;;19.61;34.81;102835.00;5016160;28;20397;-61
2022/04/17 03:54:28;;;;;;;4.45;2.47;;;;;;;19.61;34.70;102835.00;5015897;28;20393;-62
2022/04/17 03:56:53;;;;;;;5.13;2.50;;;;;;;19.61;34.74;102831.50;5016410;28;20029;-62
2022/04/17 03:59:19;;;;;;;4.03;2.23;;;;;;;19.60;34.59;102840.38;5016631;28;20751;-62
2022/04/17 04:01:46;;;;;;;3.65;1.92;;;;;;;19.58;34.37;102836.03;5015687;28;20612;-62
2022/04/17 04:04:11;;;;;;;3.97;2.20;;;;;;;19.57;34.47;102836.97;5016044;28;20037;-61
2022/04/17 04:06:37;;;;;;;5.25;2.38;;;;;;;19.56;34.67;102832.59;5016365;28;20417;-61
2022/04/17 04:09:02;;;;;;;3.45;2.00;;;;;;;19.57;34.58;102831.66;5015300;28;20037;-61
2022/04/17 04:11:27;;;;;;;4.47;2.20;;;;;;;19.56;34.82;102822.03;5016342;28;20362;-61
2022/04/17 04:13:54;;;;;;;4.82;2.30;;;;;;;19.54;34.60;102821.25;5015931;28;20279;-61
2022/04/17 04:16:19;;;;;;;3.85;2.17;;;;;;;19.54;34.61;102820.41;5015191;28;20053;-61
2022/04/17 04:18:48;;;;;;;3.80;2.08;;;;;;;19.52;34.44;102819.66;5015987;28;20034;-62
2022/04/17 04:21:13;;;;;;;5.10;2.17;;;;;;;19.51;34.59;102816.16;5016244;28;20030;-62
2022/04/17 04:23:39;;;;;;;4.43;2.40;;;;;;;19.50;34.28;102816.22;5015248;28;20026;-62
2022/04/17 04:26:05;;;;;;;4.22;2.15;;;;;;;19.50;34.55;102813.59;5015564;28;20279;-61
2022/04/17 04:28:34;;;;;;;4.47;2.05;;;;;;;19.48;34.60;102813.66;5015699;28;20040;-62
2022/04/17 04:31:05;;;;;;;4.47;2.22;;;;;;;19.48;34.57;102811.03;5014797;28;20029;-62
2022/04/17 04:33:31;;;;;;;3.90;2.20;;;;;;;19.47;34.34;102805.81;5015671;28;20026;-62
2022/04/17 04:35:58;;;;;;;4.07;2.17;;;;;;;19.46;34.65;102809.44;5015306;28;20033;-62
2022/04/17 04:38:24;;;;;;;3.85;2.13;;;;;;;19.44;34.46;102814.81;5015071;28;20024;-62
2022/04/17 04:41:01;;;;;;;4.50;2.35;;;;;;;19.47;34.63;102803.19;5015323;28;20105;-62
2022/04/17 04:43:27;;;;;;;3.95;2.17;;;;;;;19.53;34.47;102802.84;5014842;28;20050;-62
2022/04/17 04:46:10;;;;;;;4.22;2.08;;;;;;;19.60;34.14;102798.03;5015226;28;20057;-62
2022/04/17 04:51:25;;;;;;;3.85;1.92;;;;;;;19.68;34.01;102801.13;5014827;28;20493;-62
2022/04/17 04:53:51;;;;;;;4.22;2.22;;;;;;;19.71;33.86;102795.63;5014521;28;20029;-62
2022/04/17 04:56:17;;;;;;;3.85;2.10;;;;;;;19.74;33.90;102798.09;5015160;28;20394;-62
2022/04/17 04:58:43;;;;;;;4.30;2.03;;;;;;;19.76;33.64;102798.94;5014543;28;20022;-62
2022/04/17 05:01:11;;;;;;;4.30;2.10;;;;;;;19.77;33.71;102799.78;5014953;28;20435;-62
2022/04/17 05:03:40;;;;;;;5.03;2.20;;;;;;;19.80;33.65;102808.38;5015262;28;20054;-62
2022/04/17 05:06:08;;;;;;;4.43;2.20;;;;;;;19.80;33.36;102802.25;5014143;28;20034;-62
2022/04/17 05:08:34;;;;;;;3.50;2.00;;;;;;;19.82;33.25;102805.66;5014913;28;20056;-62
2022/04/17 05:11:00;;;;;;;4.10;2.22;;;;;;;19.82;33.50;102803.00;5014788;28;20030;-62
2022/04/17 05:13:31;;;;;;;4.32;2.22;;;;;;;19.83;33.56;102802.91;5014386;28;20501;-62
2022/04/17 05:15:56;;;;;;;4.82;2.10;;;;;;;19.84;33.27;102799.34;5014379;28;20544;-62
2022/04/17 05:18:22;;;;;;;4.87;2.57;;;;;;;19.84;33.57;102809.91;5014828;28;20080;-62
2022/04/17 05:20:47;;;;;;;4.00;2.10;;;;;;;19.83;33.42;102813.50;5014177;28;20287;-62
2022/04/17 05:23:21;;;;;;;3.28;1.70;;;;;;;19.82;33.47;102809.16;5014492;28;20366;-62
2022/04/17 05:26:06;;;;;;;5.50;2.30;;;;;;;19.82;33.46;102813.56;5014313;28;20036;-62
2022/04/17 05:28:34;;;;;;;3.95;1.92;;;;;;;19.81;33.47;102810.09;5014555;28;20060;-62
2022/04/17 05:31:00;;;;;;;4.75;2.55;;;;;;;19.81;33.44;102815.38;5014435;28;20093;-62
2022/04/17 05:33:25;;;;;;;4.28;2.50;;;;;;;19.80;33.57;102803.09;5013676;28;20517;-62
2022/04/17 05:35:51;;;;;;;5.10;2.20;;;;;;;19.80;33.39;102816.31;5014236;28;20022;-63
2022/04/17 05:38:18;;;;;;;4.05;2.17;;;;;;;19.80;33.59;102812.81;5014426;28;20747;-62
2022/04/17 05:40:46;;;;;;;4.47;2.03;;;;;;;19.79;33.70;102809.34;5013986;28;20433;-63
2022/04/17 05:43:12;;;;;;;4.32;2.33;;;;;;;19.83;33.89;102810.00;5014280;28;20025;-62
2022/04/17 05:45:38;;;;;;;4.55;1.90;;;;;;;19.83;34.93;102812.66;5014429;28;20029;-62
2022/04/17 05:48:09;;;;;;;3.35;1.73;;;;;;;19.85;36.10;102818.69;5013217;28;20075;-62
2022/04/17 05:50:35;;;;;;;3.47;1.70;;;;;;;19.86;36.61;102815.13;5014450;28;20026;-62
2022/04/17 05:53:00;;;;;;;3.83;1.85;;;;;;;19.87;37.07;102816.84;5013810;28;20104;-61
2022/04/17 05:55:27;;;;;;;3.40;1.80;;;;;;;19.88;37.15;102808.78;5013547;28;20028;-62
2022/04/17 05:57:52;;;;;;;3.80;1.75;;;;;;;19.89;37.12;102813.13;5013885;28;20033;-61
2022/04/17 06:00:21;;;;;;;3.40;1.60;;;;;;;19.90;37.00;102816.63;5014122;28;20393;-62
2022/04/17 06:02:47;;;;;;;3.97;2.17;;;;;;;19.91;37.03;102808.59;5013250;28;20029;-62
2022/04/17 06:05:17;;;;;;;3.10;1.40;;;;;;;19.93;37.21;102814.69;5012748;28;20588;-62
2022/04/17 06:07:43;;;;;;;4.63;1.90;;;;;;;19.94;37.32;102816.38;5014257;28;20058;-62
2022/04/17 06:10:10;;;;;;;4.22;2.00;;;;;;;19.96;37.16;102803.03;5013268;28;20199;-64
2022/04/17 06:12:36;;;;;;;3.35;1.77;;;;;;;20.01;36.95;102808.06;5013990;28;20033;-62
2022/04/17 06:15:03;;;;;;;3.65;1.85;;;;;;;20.08;36.98;102809.44;5012616;28;20059;-62
2022/04/17 06:17:36;;;;;;;3.17;1.60;;;;;;;20.12;37.03;102805.66;5013669;28;20092;-62
2022/04/17 06:20:09;;;;;;;3.75;1.67;;;;;;;20.18;36.73;102813.22;5013406;28;20032;-62
2022/04/17 06:22:35;;;;;;;3.55;1.50;;;;;;;20.19;36.75;102807.00;5013171;28;20037;-62
2022/04/17 06:25:15;;;;;;;3.63;1.60;;;;;;;20.22;36.76;102804.19;5013433;28;20377;-63
2022/04/17 06:27:41;;;;;;;3.03;1.60;;;;;;;20.24;36.84;102806.72;5013601;28;20053;-62
2022/04/17 06:30:12;;;;;;;3.95;1.83;;;;;;;20.26;36.69;102797.72;5012661;28;20022;-62
2022/04/17 06:32:41;;;;;;;3.60;1.50;;;;;;;20.23;36.75;102799.72;5013925;28;20078;-62
2022/04/17 06:35:08;;;;;;;3.92;1.60;;;;;;;20.21;36.84;102799.81;5013204;28;20391;-62
2022/04/17 06:37:54;;;;;;;2.92;1.52;;;;;;;20.20;36.88;102797.25;5013395;28;20033;-62
2022/04/17 06:40:28;;;;;;;4.95;1.70;;;;;;;20.18;37.18;102791.22;5013405;28;20445;-61
2022/04/17 06:42:55;;;;;;;3.88;1.60;;;;;;;20.20;37.07;102798.13;5013115;28;20033;-62
2022/04/17 06:45:21;;;;;;;3.45;1.50;;;;;;;20.24;36.97;102807.56;5013189;28;20076;-61
2022/04/17 06:47:46;;;;;;;3.20;1.50;;;;;;;20.25;36.94;102805.78;5013261;28;20025;-62
2022/04/17 06:50:12;;;;;;;3.58;1.67;;;;;;;20.27;37.10;102806.56;5012225;28;20026;-62
2022/04/17 06:52:38;;;;;;;3.33;1.40;;;;;;;20.31;37.02;102797.47;5013264;28;20044;-62
2022/04/17 06:55:05;;;;;;;2.88;1.40;;;;;;;20.33;36.81;102794.72;5012792;28;20049;-62
2022/04/17 06:57:31;;;;;;;3.17;1.30;;;;;;;20.29;36.81;102797.56;5012447;28;20036;-63
2022/04/17 06:59:57;;;;;;;2.50;1.27;;;;;;;20.27;36.84;102790.66;5012940;28;20112;-62
2022/04/17 07:02:23;;;;;;;3.25;1.33;;;;;;;20.26;36.96;102796.88;5013068;28;20113;-61
2022/04/17 07:04:48;;;;;;;3.25;1.40;;;;;;;20.23;36.93;102792.63;5012057;28;20397;-61
2022/04/17 07:07:13;;;;;;;2.78;1.33;;;;;;;20.23;36.86;102792.63;5012888;28;20054;-61
2022/04/17 07:09:42;;;;;;;2.63;1.20;;;;;;;20.21;36.84;102794.50;5012646;28;20029;-61
2022/04/17 07:12:07;;;;;;;2.85;1.35;;;;;;;20.23;36.84;102794.44;5011984;28;20283;-60
2022/04/17 07:14:32;;;;;;;3.40;1.50;;;;;;;20.21;36.65;102788.38;5012931;28;20443;-63
2022/04/17 07:16:58;;;;;;;3.70;1.40;;;;;;;20.21;37.00;102781.28;5011950;28;20302;-64
2022/04/17 07:19:23;;;;;;;4.00;1.60;;;;;;;20.21;36.04;102785.72;5012194;28;20271;-62
2022/04/17 07:21:48;;;;;;;3.97;1.90;;;;;;;20.24;35.56;102782.91;5012601;28;20022;-61
2022/04/17 07:24:14;;;;;;;3.92;1.67;;;;;;;20.24;36.25;102783.75;5012785;28;20255;-60
2022/04/17 07:26:39;;;;;;;3.65;1.50;;;;;;;20.27;36.97;102783.56;5011930;28;20025;-60
2022/04/17 07:29:05;;;;;;;2.72;1.30;;;;;;;20.31;36.75;102776.28;5012633;28;20026;-60
2022/04/17 07:31:30;;;;;;;4.22;1.65;;;;;;;20.35;36.87;102771.69;5012813;28;20041;-62
2022/04/17 07:33:58;;;;;;;3.38;1.35;;;;;;;20.37;36.95;102773.25;5011587;28;20018;-60
2022/04/17 07:36:23;;;;;;;8.82;1.33;;;;;;;20.42;36.88;102770.34;5012746;28;20065;-61
2022/04/17 07:38:48;;;;;;;4.75;1.40;;;;;;;20.43;36.74;102764.09;5012335;28;20030;-60
2022/04/17 07:41:14;;;;;;;3.80;1.20;;;;;;;20.45;37.04;102764.84;5012144;28;20072;-60
2022/04/17 07:43:42;;;;;;;3.80;1.55;;;;;;;20.49;36.86;102758.44;5012837;28;20275;-60
2022/04/17 07:46:07;;;;;;;3.60;1.50;;;;;;;20.52;36.90;102766.19;5012353;28;20109;-61
2022/04/17 07:48:35;;;;;;;2.87;1.30;;;;;;;20.55;36.92;102762.50;5011930;28;20117;-60
2022/04/17 07:51:01;;;;;;;2.45;1.13;;;;;;;20.56;37.10;102756.25;5012302;28;20593;-61
2022/04/17 07:53:26;;;;;;;4.07;1.63;;;;;;;20.56;37.01;102756.25;5011627;28;20037;-60
2022/04/17 07:55:52;;;;;;;6.93;1.50;;;;;;;20.58;37.00;102759.66;5013121;28;20099;-67
2022/04/17 07:58:34;;;;;;;4.60;1.30;;;;;;;20.65;36.75;102756.56;5012780;28;20033;-62
2022/04/17 08:01:03;;;;;;;3.10;1.50;;;;;;;20.76;36.63;102757.69;5011731;28;20497;-62
2022/04/17 08:03:46;;;;;;;3.10;1.50;;;;;;;20.85;36.38;102754.47;5012591;28;20036;-63
2022/04/17 08:06:15;;;;;;;2.72;1.20;;;;;;;20.96;35.62;102756.44;5013075;28;20037;-66
2022/04/17 08:08:44;;;;;;;4.43;1.38;;;;;;;21.06;35.45;102756.69;5011951;28;20022;-60
2022/04/17 08:11:10;;;;;;;4.18;1.50;;;;;;;21.09;35.44;102760.00;5012121;28;20121;-63
2022/04/17 08:13:36;;;;;;;5.40;1.48;;;;;;;21.10;35.76;102753.75;5012697;28;20030;-62
2022/04/17 08:16:02;;;;;;;3.33;1.50;;;;;;;21.12;35.76;102751.00;5010981;28;20053;-63
2022/04/17 08:18:28;;;;;;;3.13;1.40;;;;;;;21.12;35.90;102749.19;5012316;28;20025;-61
2022/04/17 08:20:53;;;;;;;4.53;1.75;;;;;;;21.12;35.95;102753.66;5012177;28;20040;-64
2022/04/17 08:23:19;;;;;;;3.70;1.58;;;;;;;21.13;36.11;102753.56;5011770;28;20014;-61
2022/04/17 08:25:50;;;;;;;3.20;1.42;;;;;;;21.14;35.77;102755.28;5012517;28;20037;-64
2022/04/17 08:28:18;;;;;;;3.15;1.50;;;;;;;21.16;35.60;102755.19;5012359;28;20359;-60
2022/04/17 08:30:43;;;;;;;4.10;1.40;;;;;;;21.20;35.65;102757.53;5015275;28;20041;-61
2022/04/17 08:33:09;;;;;;;3.60;1.70;;;;;;;21.25;35.56;102746.59;5015976;28;20025;-65
2022/04/17 08:35:35;;;;;;;3.65;1.50;;;;;;;21.30;35.40;102751.63;5015131;28;20026;-62
2022/04/17 08:38:00;;;;;;;4.00;1.55;;;;;;;21.29;35.34;102744.63;5015301;28;20034;-62
2022/04/17 08:40:26;;;;;;;4.25;1.35;;;;;;;21.30;35.16;102744.53;5016097;28;20084;-62
2022/04/17 08:42:56;;;;;;;3.70;1.40;;;;;;;21.25;34.67;102724.56;5014522;28;20037;-61
2022/04/17 08:45:22;;;;;;;3.28;1.38;;;;;;;21.35;34.73;102742.41;5015446;28;20358;-63
2022/04/17 08:47:48;;;;;;;2.85;1.30;;;;;;;21.32;34.16;102741.78;5015306;28;20528;-63
2022/04/17 08:50:16;;;;;;;2.95;1.25;;;;;;;21.31;35.01;102746.22;5014605;28;20520;-60
2022/04/17 08:52:47;;;;;;;3.03;1.17;;;;;;;21.32;35.49;102734.66;5015320;28;20113;-61
2022/04/17 08:55:13;;;;;;;3.00;1.38;;;;;;;21.31;35.61;102743.56;5015121;28;20122;-63
2022/04/17 08:57:39;;;;;;;3.05;1.30;;;;;;;21.29;35.62;102742.81;5014648;28;20466;-63
2022/04/17 09:00:11;;;;;;;3.22;1.27;;;;;;;21.30;35.61;102735.72;5014946;28;20168;-62
2022/04/17 09:02:37;;;;;;;5.55;2.10;;;;;;;21.31;35.90;102737.41;5015346;28;20076;-63
2022/04/17 09:05:07;;;;;;;6.18;1.55;;;;;;;21.30;35.88;102731.28;5014257;28;20486;-62
2022/04/17 09:07:53;;;;;;;4.43;1.25;;;;;;;21.30;36.07;102733.94;5015148;28;20076;-61
2022/04/17 09:10:26;;;;;;;2.92;1.30;;;;;;;21.31;36.04;102735.59;5014973;28;20474;-61
2022/04/17 09:12:59;;;;;;;2.97;1.30;;;;;;;21.31;36.27;102730.31;5014169;28;20022;-61
2022/04/17 09:15:28;;;;;;;3.60;1.40;;;;;;;21.29;36.01;102724.25;5014916;28;20125;-60
2022/04/17 09:17:54;;;;;;;3.55;1.20;;;;;;;21.29;36.18;102720.75;5013923;28;20034;-60
2022/04/17 09:20:46;;;;;;;3.85;1.48;;;;;;;21.26;36.17;102731.56;5014740;28;20022;-59
2022/04/17 09:23:12;;;;;;;2.90;1.30;;;;;;;21.26;36.18;102726.25;5016322;28;20030;-60
2022/04/17 09:25:37;;;;;;;2.92;1.23;;;;;;;21.22;36.30;102715.03;5014109;28;20351;-60
2022/04/17 09:28:05;;;;;;;3.25;1.50;;;;;;;21.22;36.42;102715.03;5014631;28;20112;-60
2022/04/17 09:30:38;;;;;;;2.30;1.05;;;;;;;21.22;36.59;102712.38;5014789;28;20030;-60
2022/04/17 09:33:06;;;;;;;1.92;1.10;;;;;;;21.22;36.43;102717.66;5013692;28;20044;-61
2022/04/17 09:35:32;;;;;;;11.02;1.27;;;;;;;21.22;36.26;102711.50;5014518;28;20033;-61
2022/04/17 09:38:01;;;;;;;2.88;1.30;;;;;;;21.22;36.33;102709.72;5014439;28;20030;-61
2022/04/17 09:40:31;;;;;;;3.42;1.30;;;;;;;21.22;36.19;102707.06;5014647;28;20033;-63
2022/04/17 09:43:13;;;;;;;4.15;1.30;;;;;;;21.24;36.20;102698.97;5014578;28;20026;-63
2022/04/17 09:45:59;;;;;;;4.28;1.15;;;;;;;21.23;36.14;102692.00;5015301;28;20022;-62
2022/04/17 09:48:28;;;;;;;2.88;1.30;;;;;;;21.25;35.72;102692.72;5016188;28;20080;-62
2022/04/17 09:50:53;;;;;;;5.10;1.35;;;;;;;21.28;35.50;102680.13;5015742;28;20105;-62
2022/04/17 09:53:40;;;;;;;2.77;1.20;;;;;;;21.31;35.66;102674.63;5015013;28;20108;-61
2022/04/17 09:56:08;;;;;;;3.65;1.33;;;;;;;21.33;35.86;102674.50;5014313;28;20271;-61
2022/04/17 09:58:48;;;;;;;4.03;1.40;;;;;;;21.30;35.90;102675.59;5014428;28;20414;-61
2022/04/17 10:01:18;;;;;;;3.20;1.30;;;;;;;21.32;35.89;102671.03;5014162;28;20033;-64
2022/04/17 10:03:46;;;;;;;3.42;1.40;;;;;;;21.34;35.61;102663.81;5014478;28;20021;-65
2022/04/17 10:06:12;;;;;;;2.80;1.02;;;;;;;21.37;36.11;102655.66;5013744;28;20477;-64
2022/04/17 10:08:39;;;;;;;3.42;1.25;;;;;;;21.36;36.01;102653.97;5013458;28;20025;-61
2022/04/17 10:11:07;;;;;;;4.22;1.20;;;;;;;21.33;36.08;102651.50;5013630;28;20092;-61
2022/04/17 10:13:33;;;;;;;6.32;1.30;;;;;;;21.33;36.08;102646.22;5014415;28;20026;-62
2022/04/17 10:16:00;;;;;;;4.00;1.30;;;;;;;21.34;36.12;102644.41;5013853;28;20127;-64
2022/04/17 10:18:28;;;;;;;3.65;1.33;;;;;;;21.35;36.05;102639.00;5014054;28;20021;-62
2022/04/17 10:20:55;;;;;;;3.13;1.17;;;;;;;21.38;35.89;102632.66;5013616;28;20034;-61
2022/04/17 10:23:26;;;;;;;6.18;1.63;;;;;;;21.39;35.78;102639.63;5013217;28;20113;-60
2022/04/17 10:25:54;;;;;;;5.35;1.40;;;;;;;21.40;35.85;102635.19;5013844;28;20030;-65
2022/04/17 10:28:20;;;;;;;5.00;1.45;;;;;;;21.37;35.88;102617.69;5012933;28;20657;-62
2022/04/17 10:31:14;;;;;;;3.83;1.60;;;;;;;21.37;35.02;102620.31;5013588;28;20488;-64
2022/04/17 10:34:15;;;;;;;8.82;1.85;;;;;;;21.38;35.38;102609.63;5013529;28;20049;-63
2022/04/17 10:36:56;;;;;;;6.32;1.70;;;;;;;21.37;35.52;102596.47;5012836;28;20029;-60
2022/04/17 10:39:45;;;;;;;4.78;1.67;;;;;;;21.40;36.11;102593.59;5013556;28;20030;-60
2022/04/17 10:42:11;;;;;;;8.48;1.90;;;;;;;21.39;35.69;102591.88;5012272;28;20030;-61
2022/04/17 10:44:42;;;;;;;6.25;2.42;;;;;;;21.38;35.69;102588.41;5013556;28;20033;-61
2022/04/17 10:47:20;;;;;;;6.03;2.10;;;;;;;21.37;35.48;102586.69;5013112;28;20033;-61
2022/04/17 10:49:56;;;;;;;5.82;2.08;;;;;;;21.37;35.55;102578.72;5012597;28;20032;-60
2022/04/17 10:52:29;;;;;;;5.65;2.45;;;;;;;21.36;34.76;102569.09;5012466;28;20425;-60
2022/04/17 10:54:55;;;;;;;5.47;3.00;;;;;;;21.37;34.76;102580.53;5013012;28;20395;-67
2022/04/17 10:57:24;;;;;;;7.10;2.95;;;;;;;21.38;35.05;102567.19;5013002;28;20061;-61
2022/04/17 11:00:09;;;;;;;9.75;3.28;;;;;;;21.40;35.43;102561.78;5013609;28;20026;-67
2022/04/17 11:02:35;;;;;;;6.78;3.40;;;;;;;21.44;35.48;102565.06;5013134;28;20022;-64
2022/04/17 11:05:00;;;;;;;8.50;3.38;;;;;;;21.44;35.83;102562.41;5013963;28;20021;-64
2022/04/17 11:07:28;;;;;;;4.95;2.92;;;;;;;21.45;36.01;102561.47;5014758;28;20055;-62
2022/04/17 11:10:20;;;;;;;6.05;3.17;;;;;;;21.46;36.02;102563.13;5015101;28;20053;-65
2022/04/17 11:12:57;;;;;;;8.40;3.40;;;;;;;21.43;36.22;102553.63;5014806;28;20030;-66
2022/04/17 11:15:24;;;;;;;5.32;2.60;;;;;;;21.46;35.93;102557.84;5013301;28;20120;-66
2022/04/17 11:17:50;;;;;;;7.07;2.88;;;;;;;21.47;36.14;102556.91;5011956;28;20029;-62
2022/04/17 11:20:16;;;;;;;8.50;3.15;;;;;;;21.47;35.76;102548.94;5013364;28;20018;-63
2022/04/17 11:22:41;;;;;;;5.35;2.70;;;;;;;21.46;36.25;102542.78;5012516;28;20038;-61
2022/04/17 11:25:12;;;;;;;8.45;3.10;;;;;;;21.45;36.22;102541.09;5012107;28;20026;-62
2022/04/17 11:27:46;;;;;;;10.75;2.83;;;;;;;21.43;35.39;102536.81;5012879;28;20030;-64
2022/04/17 11:30:14;;;;;;;5.00;2.45;;;;;;;21.42;35.42;102532.50;5013121;28;20030;-60
2022/04/17 11:32:39;;;;;;;6.55;2.75;;;;;;;21.40;35.91;102526.47;5013883;28;20037;-61
2022/04/17 11:35:13;;;;;;;6.30;2.50;;;;;;;21.40;35.92;102523.81;5014469;28;20030;-64
2022/04/17 11:37:38;;;;;;;6.53;3.20;;;;;;;21.42;35.96;102525.38;5013965;28;20333;-61